createdAt,value
2019-02-20T00:00:32.758Z,101980.62
2019-02-20T00:03:01.256Z,101973.10
2019-02-20T00:05:30.615Z,101967.16
2019-02-20T00:07:59.250Z,101976.34
2019-02-20T00:10:27.834Z,101971.24
2019-02-20T00:12:56.388Z,101971.25
2019-02-20T00:15:24.928Z,101969.93
2019-02-20T00:17:53.429Z,101977.19
2019-02-20T00:20:22.169Z,101969.66
2019-02-20T00:22:50.751Z,101971.28
2019-02-20T00:25:19.329Z,101976.14
2019-02-20T00:27:47.841Z,101974.76
2019-02-20T00:30:16.466Z,101961.52
2019-02-20T00:32:45.057Z,101961.52
2019-02-20T00:35:13.773Z,101974.28
2019-02-20T00:37:42.285Z,101972.94
2019-02-20T00:40:12.170Z,101967.80
2019-02-20T00:42:40.739Z,101974.83
2019-02-20T00:45:30.656Z,101979.41
2019-02-20T00:48:07.002Z,101976.95
2019-02-20T00:50:37.134Z,101973.71
2019-02-20T00:53:19.905Z,101983.16
2019-02-20T00:55:48.643Z,101980.16
2019-02-20T00:58:17.219Z,101974.22
2019-02-20T01:00:45.663Z,101979.58
2019-02-20T01:03:14.306Z,101975.77
2019-02-20T01:05:42.927Z,101971.48
2019-02-20T01:08:11.901Z,101980.70
2019-02-20T01:10:40.422Z,101987.76
2019-02-20T01:13:09.935Z,101981.00
2019-02-20T01:15:38.452Z,101981.91
2019-02-20T01:18:07.080Z,101981.95
2019-02-20T01:20:35.667Z,101983.59
2019-02-20T01:23:04.272Z,101983.34
2019-02-20T01:25:32.913Z,101982.28
2019-02-20T01:28:01.408Z,101989.63
2019-02-20T01:30:30.022Z,101983.13
2019-02-20T01:32:58.567Z,101977.50
2019-02-20T01:35:27.269Z,101982.37
2019-02-20T01:37:55.779Z,101985.62
2019-02-20T01:40:24.935Z,101985.35
2019-02-20T01:42:53.567Z,101983.47
2019-02-20T01:45:23.086Z,101982.34
2019-02-20T01:47:51.842Z,101976.11
2019-02-20T01:50:20.357Z,101972.87
2019-02-20T01:52:48.919Z,101971.25
2019-02-20T01:55:17.512Z,101976.90
2019-02-20T01:57:46.071Z,101971.23
2019-02-20T02:00:14.857Z,101969.34
2019-02-20T02:02:43.574Z,101970.18
2019-02-20T02:05:15.320Z,101966.13
2019-02-20T02:07:42.724Z,101965.05
2019-02-20T02:10:11.395Z,101968.30
2019-02-20T02:12:39.888Z,101975.33
2019-02-20T02:15:09.608Z,101975.08
2019-02-20T02:17:38.283Z,101972.36
2019-02-20T02:20:09.091Z,101978.52
2019-02-20T02:22:37.748Z,101982.87
2019-02-20T02:25:06.681Z,101973.19
2019-02-20T02:27:35.254Z,101968.00
2019-02-20T02:30:06.985Z,101972.03
2019-02-20T02:32:36.237Z,101970.14
2019-02-20T02:35:05.584Z,101967.44
2019-02-20T02:37:34.222Z,101969.59
2019-02-20T02:40:02.822Z,101967.17
2019-02-20T02:42:31.325Z,101967.16
2019-02-20T02:45:00.435Z,101957.72
2019-02-20T02:47:28.833Z,101955.28
2019-02-20T02:49:57.485Z,101953.38
2019-02-20T02:52:26.672Z,101953.11
2019-02-20T02:54:58.383Z,101940.15
2019-02-20T02:57:26.937Z,101942.08
2019-02-20T02:59:55.523Z,101937.73
2019-02-20T03:02:24.055Z,101945.58
2019-02-20T03:04:52.630Z,101936.89
2019-02-20T03:07:21.219Z,101939.84
2019-02-20T03:09:49.834Z,101947.41
2019-02-20T03:12:18.348Z,101946.88
2019-02-20T03:14:47.928Z,101951.73
2019-02-20T03:17:16.497Z,101950.67
2019-02-20T03:19:45.242Z,101949.86
2019-02-20T03:22:13.827Z,101952.04
2019-02-20T03:24:42.337Z,101963.38
2019-02-20T03:27:10.972Z,101964.99
2019-02-20T03:29:39.642Z,101969.06
2019-02-20T03:32:08.146Z,101965.27
2019-02-20T03:34:36.862Z,101963.38
2019-02-20T03:37:05.752Z,101959.59
2019-02-20T03:39:34.390Z,101961.75
2019-02-20T03:42:02.888Z,101966.86
2019-02-20T03:44:31.568Z,101975.22
2019-02-20T03:47:00.151Z,101976.33
2019-02-20T03:49:28.666Z,101977.39
2019-02-20T03:51:57.194Z,101977.38
2019-02-20T03:54:25.703Z,101976.03
2019-02-20T03:56:54.823Z,101978.95
2019-02-20T03:59:23.455Z,101981.39
2019-02-20T04:01:51.953Z,101982.47
2019-02-20T04:04:22.843Z,101984.93
2019-02-20T04:06:54.528Z,101983.03
2019-02-20T04:09:23.034Z,101983.30
2019-02-20T04:11:51.605Z,101984.11
2019-02-20T04:14:20.232Z,101987.38
2019-02-20T04:16:48.829Z,101987.13
2019-02-20T04:19:17.817Z,101984.97
2019-02-20T04:21:46.409Z,101985.25
2019-02-20T04:24:14.973Z,101994.16
2019-02-20T04:26:43.523Z,101993.61
2019-02-20T04:29:12.068Z,101995.20
2019-02-20T04:31:40.677Z,101997.88
2019-02-20T04:34:09.243Z,101998.71
2019-02-20T04:36:37.812Z,101994.12
2019-02-20T04:39:07.118Z,101994.09
2019-02-20T04:41:37.595Z,101992.47
2019-02-20T04:44:06.053Z,101992.47
2019-02-20T04:46:34.736Z,101990.30
2019-02-20T04:49:03.329Z,101990.33
2019-02-20T04:51:32.115Z,101984.39
2019-02-20T04:54:00.674Z,101979.79
2019-02-20T04:56:29.274Z,101982.79
2019-02-20T04:58:59.786Z,101981.95
2019-02-20T05:01:28.424Z,101987.06
2019-02-20T05:03:57.002Z,101978.36
2019-02-20T05:06:25.579Z,101986.50
2019-02-20T05:08:54.133Z,101987.84
2019-02-20T05:11:22.722Z,101988.39
2019-02-20T05:13:51.248Z,101992.69
2019-02-20T05:16:20.222Z,101985.32
2019-02-20T05:18:48.786Z,101985.56
2019-02-20T05:21:17.334Z,101996.32
2019-02-20T05:23:45.991Z,101991.15
2019-02-20T05:26:14.669Z,101991.70
2019-02-20T05:28:43.219Z,101982.55
2019-02-20T05:31:11.806Z,101985.52
2019-02-20T05:33:40.242Z,101985.52
2019-02-20T05:36:08.897Z,101992.81
2019-02-20T05:38:38.856Z,101994.12
2019-02-20T05:41:07.475Z,101989.84
2019-02-20T05:43:36.965Z,101988.02
2019-02-20T05:46:05.579Z,101993.42
2019-02-20T05:48:34.127Z,101982.32
2019-02-20T05:51:02.679Z,101989.34
2019-02-20T05:53:31.222Z,101993.66
2019-02-20T05:55:59.861Z,101994.00
2019-02-20T05:58:28.376Z,101990.73
2019-02-20T06:00:57.379Z,101992.65
2019-02-20T06:03:25.873Z,101992.92
2019-02-20T06:05:54.548Z,101995.86
2019-02-20T06:08:23.198Z,101997.48
2019-02-20T06:10:51.864Z,102003.38
2019-02-20T06:13:20.471Z,102010.41
2019-02-20T06:15:53.248Z,102014.45
2019-02-20T06:18:21.860Z,102016.38
2019-02-20T06:20:50.506Z,102015.03
2019-02-20T06:23:19.200Z,102017.16
2019-02-20T06:25:47.741Z,102008.86
2019-02-20T06:28:16.366Z,102013.18
2019-02-20T06:30:44.821Z,102019.63
2019-02-20T06:33:13.453Z,102018.20
2019-02-20T06:35:41.896Z,102023.37
2019-02-20T06:38:11.540Z,102021.21
2019-02-20T06:40:40.466Z,102019.55
2019-02-20T06:43:09.155Z,102019.51
2019-02-20T06:45:38.207Z,102027.64
2019-02-20T06:48:06.801Z,102027.64
2019-02-20T06:50:35.442Z,102031.43
2019-02-20T06:53:04.018Z,102034.70
2019-02-20T06:55:32.664Z,102036.37
2019-02-20T06:58:01.186Z,102032.05
2019-02-20T07:00:29.787Z,102035.05
2019-02-20T07:02:58.286Z,102036.64
2019-02-20T07:05:37.860Z,102032.59
2019-02-20T07:08:25.905Z,102029.84
2019-02-20T07:11:12.646Z,102039.53
2019-02-20T07:14:11.818Z,102037.91
2019-02-20T07:17:15.207Z,102045.69
2019-02-20T07:19:55.837Z,102050.72
2019-02-20T07:22:45.655Z,102063.41
2019-02-20T07:25:29.371Z,102055.41
2019-02-20T07:28:25.550Z,102063.52
2019-02-20T07:30:54.020Z,102059.55
2019-02-20T07:33:24.907Z,102068.20
2019-02-20T07:35:53.489Z,102069.28
2019-02-20T07:38:23.065Z,102076.61
2019-02-20T07:40:51.731Z,102078.31
2019-02-20T07:43:20.607Z,102082.91
2019-02-20T07:45:49.343Z,102078.33
2019-02-20T07:48:17.886Z,102077.47
2019-02-20T07:50:46.603Z,102078.02
2019-02-20T07:53:15.215Z,102081.02
2019-02-20T07:55:43.661Z,102081.33
2019-02-20T07:58:12.329Z,102079.24
2019-02-20T08:00:40.792Z,102081.91
2019-02-20T08:03:09.425Z,102089.24
2019-02-20T08:05:38.066Z,102090.36
2019-02-20T08:08:06.651Z,102090.13
2019-02-20T08:10:35.498Z,102090.45
2019-02-20T08:13:04.467Z,102094.34
2019-02-20T08:15:33.001Z,102101.67
2019-02-20T08:18:01.580Z,102099.80
2019-02-20T08:20:30.147Z,102097.66
2019-02-20T08:22:58.816Z,102109.05
2019-02-20T08:25:27.363Z,102103.88
2019-02-20T08:27:55.806Z,102114.65
2019-02-20T08:30:24.443Z,102116.70
2019-02-20T08:32:53.126Z,102122.02
2019-02-20T08:35:21.857Z,102121.95
2019-02-20T08:37:50.357Z,102115.19
2019-02-20T08:40:18.989Z,102122.17
2019-02-20T08:42:47.509Z,102120.33
2019-02-20T08:45:16.516Z,102120.97
2019-02-20T08:47:45.205Z,102126.98
2019-02-20T08:50:14.184Z,102119.49
2019-02-20T08:52:42.759Z,102130.36
2019-02-20T08:55:12.169Z,102125.82
2019-02-20T08:57:40.775Z,102134.23
2019-02-20T09:00:14.231Z,102136.69
2019-02-20T09:02:42.808Z,102136.37
2019-02-20T09:05:12.032Z,102138.56
2019-02-20T09:07:40.682Z,102139.15
2019-02-20T09:10:13.109Z,102143.72
2019-02-20T09:12:41.753Z,102143.19
2019-02-20T09:15:12.695Z,102140.19
2019-02-20T09:17:41.332Z,102143.44
2019-02-20T09:20:11.761Z,102139.38
2019-02-20T09:22:40.387Z,102137.22
2019-02-20T09:25:19.543Z,102137.77
2019-02-20T09:27:42.218Z,102144.00
2019-02-20T09:30:13.316Z,102135.60
2019-02-20T09:32:41.960Z,102135.60
2019-02-20T09:35:10.909Z,102133.08
2019-02-20T09:37:39.565Z,102136.48
2019-02-20T09:40:16.016Z,102133.56
2019-02-20T09:42:46.864Z,102136.55
2019-02-20T09:45:15.388Z,102137.98
2019-02-20T09:47:43.937Z,102129.33
2019-02-20T09:50:14.016Z,102137.47
2019-02-20T09:52:51.662Z,102145.63
2019-02-20T09:55:14.119Z,102142.63
2019-02-20T09:57:42.712Z,102134.53
2019-02-20T10:00:19.096Z,102135.34
2019-02-20T10:02:47.621Z,102142.92
2019-02-20T10:05:16.797Z,102136.40
2019-02-20T10:07:45.360Z,102137.38
2019-02-20T10:10:14.147Z,102131.31
2019-02-20T10:12:42.938Z,102128.76
2019-02-20T10:15:16.706Z,102126.52
2019-02-20T10:17:45.321Z,102129.00
2019-02-20T10:20:13.955Z,102130.54
2019-02-20T10:22:42.592Z,102132.95
2019-02-20T10:25:12.536Z,102138.06
2019-02-20T10:27:41.167Z,102137.52
2019-02-20T10:30:19.812Z,102135.90
2019-02-20T10:32:48.388Z,102142.22
2019-02-20T10:35:17.018Z,102148.05
2019-02-20T10:37:45.560Z,102147.39
2019-02-20T10:40:14.161Z,102147.39
2019-02-20T10:42:42.780Z,102149.45
2019-02-20T10:45:12.804Z,102146.05
2019-02-20T10:47:41.459Z,102151.11
2019-02-20T10:50:11.689Z,102150.06
2019-02-20T10:52:40.307Z,102147.31
2019-02-20T10:55:09.949Z,102151.28
2019-02-20T10:57:38.429Z,102147.80
2019-02-20T11:00:23.395Z,102148.23
2019-02-20T11:02:44.631Z,102156.42
2019-02-20T11:05:13.344Z,102152.61
2019-02-20T11:07:42.009Z,102152.65
2019-02-20T11:10:10.570Z,102157.78
2019-02-20T11:12:39.305Z,102155.45
2019-02-20T11:15:08.700Z,102157.23
2019-02-20T11:17:37.609Z,102154.52
2019-02-20T11:20:09.398Z,102152.05
2019-02-20T11:22:38.029Z,102154.39
2019-02-20T11:25:09.639Z,102145.84
2019-02-20T11:27:39.555Z,102142.25
2019-02-20T11:30:25.145Z,102145.41
2019-02-20T11:32:53.741Z,102149.80
2019-02-20T11:35:22.588Z,102149.80
2019-02-20T11:37:51.163Z,102153.66
2019-02-20T11:40:20.478Z,102155.16
2019-02-20T11:42:49.069Z,102152.61
2019-02-20T11:45:18.066Z,102150.40
2019-02-20T11:47:46.684Z,102155.70
2019-02-20T11:50:15.306Z,102157.95
2019-02-20T11:52:43.897Z,102155.44
2019-02-20T11:55:13.921Z,102155.99
2019-02-20T11:57:42.566Z,102149.74
2019-02-20T12:00:18.985Z,102154.84
2019-02-20T12:02:47.628Z,102151.33
2019-02-20T12:05:16.206Z,102146.68
2019-02-20T12:07:44.741Z,102146.17
2019-02-20T12:10:15.393Z,102145.86
2019-02-20T12:12:44.022Z,102147.66
2019-02-20T12:15:12.814Z,102143.30
2019-02-20T12:17:41.473Z,102146.57
2019-02-20T12:20:10.369Z,102147.22
2019-02-20T12:22:38.950Z,102143.51
2019-02-20T12:25:09.806Z,102137.80
2019-02-20T12:27:38.457Z,102145.96
2019-02-20T12:30:09.566Z,102144.86
2019-02-20T12:32:38.142Z,102145.25
2019-02-20T12:35:08.987Z,102147.31
2019-02-20T12:37:37.673Z,102141.80
2019-02-20T12:40:08.483Z,102139.77
2019-02-20T12:42:37.089Z,102146.16
2019-02-20T12:45:07.285Z,102142.33
2019-02-20T12:47:35.837Z,102143.69
2019-02-20T12:50:11.773Z,102146.02
2019-02-20T12:52:40.433Z,102143.57
2019-02-20T12:55:10.064Z,102152.05
2019-02-20T12:57:38.681Z,102148.14
2019-02-20T13:00:13.896Z,102145.65
2019-02-20T13:02:42.499Z,102137.42
2019-02-20T13:05:11.134Z,102145.02
2019-02-20T13:07:39.730Z,102143.16
2019-02-20T13:10:09.446Z,102136.64
2019-02-20T13:12:38.048Z,102137.66
2019-02-20T13:15:08.901Z,102132.52
2019-02-20T13:17:37.678Z,102127.63
2019-02-20T13:20:08.397Z,102125.81
2019-02-20T13:22:37.394Z,102121.87
2019-02-20T13:25:07.551Z,102126.80
2019-02-20T13:27:36.020Z,102124.91
2019-02-20T13:30:09.680Z,102126.80
2019-02-20T13:32:38.317Z,102126.63
2019-02-20T13:35:07.638Z,102134.22
2019-02-20T13:37:36.249Z,102123.50
2019-02-20T13:40:05.939Z,102123.30
2019-02-20T13:42:34.560Z,102131.84
2019-02-20T13:45:03.193Z,102132.42
2019-02-20T13:47:31.897Z,102127.26
2019-02-20T13:50:00.513Z,102124.23
2019-02-20T13:52:30.427Z,102125.98
2019-02-20T13:54:59.843Z,102118.58
2019-02-20T13:57:28.664Z,102114.13
2019-02-20T13:59:57.270Z,102113.09
2019-02-20T14:02:25.920Z,102109.59
2019-02-20T14:04:54.532Z,102105.29
2019-02-20T14:07:23.160Z,102116.23
2019-02-20T14:09:51.647Z,102111.89
2019-02-20T14:12:20.892Z,102105.34
2019-02-20T14:14:49.473Z,102104.56
2019-02-20T14:17:26.215Z,102109.49
2019-02-20T14:19:48.522Z,102103.66
2019-02-20T14:22:17.327Z,102102.34
2019-02-20T14:24:46.204Z,102099.28
2019-02-20T14:27:17.200Z,102096.69
2019-02-20T14:29:45.516Z,102101.06
2019-02-20T14:32:14.169Z,102093.33
2019-02-20T14:34:46.803Z,102093.97
2019-02-20T14:37:15.441Z,102095.28
2019-02-20T14:39:43.947Z,102105.77
2019-02-20T14:42:12.804Z,102097.34
2019-02-20T14:44:41.441Z,102104.23
2019-02-20T14:47:09.890Z,102100.75
2019-02-20T14:49:38.459Z,102101.74
2019-02-20T14:52:07.119Z,102105.47
2019-02-20T14:54:38.814Z,102104.61
2019-02-20T14:57:07.471Z,102100.95
2019-02-20T14:59:36.292Z,102102.31
2019-02-20T15:02:05.113Z,102111.00
2019-02-20T15:04:33.673Z,102109.36
2019-02-20T15:07:02.363Z,102106.66
2019-02-20T15:09:30.881Z,102111.12
2019-02-20T15:11:59.714Z,102106.27
2019-02-20T15:14:28.469Z,102110.66
2019-02-20T15:16:57.100Z,102108.45
2019-02-20T15:19:25.677Z,102110.97
2019-02-20T15:21:54.289Z,102113.64
2019-02-20T15:24:22.923Z,102112.33
2019-02-20T15:26:51.674Z,102113.56
2019-02-20T15:29:20.168Z,102115.76
2019-02-20T15:31:49.080Z,102112.53
2019-02-20T15:34:18.584Z,102120.20
2019-02-20T15:36:47.432Z,102124.97
2019-02-20T15:39:16.008Z,102119.45
2019-02-20T15:41:44.576Z,102122.68
2019-02-20T15:44:13.162Z,102116.42
2019-02-20T15:46:41.957Z,102124.22
2019-02-20T15:49:10.509Z,102116.73
2019-02-20T15:51:39.178Z,102118.39
2019-02-20T15:54:07.775Z,102120.89
2019-02-20T15:56:36.356Z,102124.58
2019-02-20T15:59:04.860Z,102121.39
2019-02-20T16:01:33.483Z,102126.39
2019-02-20T16:04:02.210Z,102127.52
2019-02-20T16:06:30.775Z,102125.48
2019-02-20T16:08:59.389Z,102128.13
2019-02-20T16:11:27.933Z,102135.06
2019-02-20T16:13:56.510Z,102138.77
2019-02-20T16:16:25.030Z,102138.77
2019-02-20T16:18:53.714Z,102146.17
2019-02-20T16:21:22.649Z,102141.13
2019-02-20T16:23:51.242Z,102141.70
2019-02-20T16:26:19.880Z,102144.77
2019-02-20T16:28:48.737Z,102141.38
2019-02-20T16:31:17.498Z,102143.85
2019-02-20T16:33:46.036Z,102145.58
2019-02-20T16:36:14.554Z,102136.05
2019-02-20T16:38:43.389Z,102140.54
2019-02-20T16:41:11.978Z,102148.75
2019-02-20T16:43:40.598Z,102149.86
2019-02-20T16:46:09.314Z,102151.61
2019-02-20T16:48:37.977Z,102154.98
2019-02-20T16:51:06.545Z,102160.42
2019-02-20T16:53:35.146Z,102161.78
2019-02-20T16:56:03.752Z,102156.00
2019-02-20T16:58:32.413Z,102165.52
2019-02-20T17:01:01.025Z,102167.52
2019-02-20T17:03:29.600Z,102162.16
2019-02-20T17:05:58.324Z,102167.91
2019-02-20T17:08:27.112Z,102169.56
2019-02-20T17:10:56.089Z,102176.70
2019-02-20T17:13:24.673Z,102181.84
2019-02-20T17:15:53.234Z,102183.50
2019-02-20T17:18:21.757Z,102185.38
2019-02-20T17:20:50.589Z,102188.34
2019-02-20T17:23:19.186Z,102193.02
2019-02-20T17:25:48.783Z,102192.69
2019-02-20T17:28:17.414Z,102193.75
2019-02-20T17:30:45.991Z,102200.50
2019-02-20T17:33:17.923Z,102200.42
2019-02-20T17:35:46.516Z,102203.70
2019-02-20T17:38:15.067Z,102204.25
2019-02-20T17:40:43.670Z,102208.33
2019-02-20T17:43:12.526Z,102211.31
2019-02-20T17:45:41.158Z,102210.45
2019-02-20T17:48:11.579Z,102205.61
2019-02-20T17:50:40.202Z,102211.54
2019-02-20T17:53:08.757Z,102211.54
2019-02-20T17:55:37.369Z,102215.11
2019-02-20T17:58:14.528Z,102207.77
2019-02-20T18:00:37.002Z,102208.12
2019-02-20T18:03:05.977Z,102208.97
2019-02-20T18:05:34.574Z,102210.63
2019-02-20T18:08:03.140Z,102213.37
2019-02-20T18:10:31.761Z,102213.18
2019-02-20T18:13:00.476Z,102219.48
2019-02-20T18:15:29.109Z,102213.59
2019-02-20T18:17:57.906Z,102222.92
2019-02-20T18:20:26.500Z,102228.47
2019-02-20T18:22:55.095Z,102228.57
2019-02-20T18:25:26.919Z,102225.41
2019-02-20T18:27:56.073Z,102232.74
2019-02-20T18:30:24.690Z,102229.52
2019-02-20T18:32:53.294Z,102230.36
2019-02-20T18:35:24.820Z,102228.76
2019-02-20T18:37:53.355Z,102228.48
2019-02-20T18:40:22.017Z,102235.81
2019-02-20T18:42:50.659Z,102240.72
2019-02-20T18:45:19.267Z,102238.56
2019-02-20T18:47:48.214Z,102242.09
2019-02-20T18:50:17.014Z,102245.62
2019-02-20T18:52:45.677Z,102243.99
2019-02-20T18:55:14.747Z,102244.80
2019-02-20T18:57:43.318Z,102248.05
2019-02-20T19:00:22.528Z,102244.81
2019-02-20T19:02:51.243Z,102249.95
2019-02-20T19:05:19.869Z,102247.77
2019-02-20T19:07:48.551Z,102248.31
2019-02-20T19:10:34.788Z,102244.23
2019-02-20T19:13:12.078Z,102241.49
2019-02-20T19:15:44.132Z,102247.70
2019-02-20T19:18:19.521Z,102243.36
2019-02-20T19:20:51.057Z,102254.20
2019-02-20T19:23:38.764Z,102254.16
2019-02-20T19:26:24.988Z,102253.33
2019-02-20T19:28:59.727Z,102252.79
2019-02-20T19:31:36.845Z,102257.39
2019-02-20T19:34:14.230Z,102250.89
2019-02-20T19:37:14.353Z,102247.13
2019-02-20T19:39:57.980Z,102253.87
2019-02-20T19:42:44.581Z,102247.33
2019-02-20T19:45:22.021Z,102251.35
2019-02-20T19:48:12.046Z,102251.32
2019-02-20T19:50:43.863Z,102252.41
2019-02-20T19:53:32.198Z,102253.19
2019-02-20T19:56:12.664Z,102259.13
2019-02-20T19:59:05.480Z,102262.38
2019-02-20T20:01:52.275Z,102260.22
2019-02-20T20:04:26.925Z,102261.56
2019-02-20T20:07:07.622Z,102257.48
2019-02-20T20:09:51.020Z,102254.23
2019-02-20T20:12:34.797Z,102256.93
2019-02-20T20:15:18.356Z,102252.06
2019-02-20T20:18:09.502Z,102249.67
2019-02-20T20:20:47.356Z,102255.34
2019-02-20T20:23:18.841Z,102251.05
2019-02-20T20:25:53.328Z,102255.92
2019-02-20T20:28:24.919Z,102251.86
2019-02-20T20:31:05.679Z,102250.47
2019-02-20T20:33:45.873Z,102249.90
2019-02-20T20:36:37.379Z,102258.02
2019-02-20T20:39:33.531Z,102254.19
2019-02-20T20:42:10.805Z,102262.30
2019-02-20T20:44:54.492Z,102261.22
2019-02-20T20:47:48.513Z,102266.02
2019-02-20T20:50:31.813Z,102273.00
2019-02-20T20:53:03.346Z,102270.03
2019-02-20T20:55:49.848Z,102273.27
2019-02-20T20:58:36.250Z,102280.53
2019-02-20T21:01:13.519Z,102277.33
2019-02-20T21:04:06.201Z,102280.20
2019-02-20T21:06:40.879Z,102281.82
2019-02-20T21:09:32.044Z,102277.23
2019-02-20T21:12:29.594Z,102278.41
2019-02-20T21:15:04.068Z,102274.13
2019-02-20T21:17:44.539Z,102274.13
2019-02-20T21:20:30.633Z,102274.75
2019-02-20T21:23:14.534Z,102277.53
2019-02-20T21:26:01.772Z,102284.94
2019-02-20T21:28:58.791Z,102284.94
2019-02-20T21:31:33.078Z,102285.24
2019-02-20T21:34:13.437Z,102288.80
2019-02-20T21:37:10.911Z,102284.22
2019-02-20T21:39:54.766Z,102292.91
2019-02-20T21:42:56.447Z,102296.97
2019-02-20T21:45:30.596Z,102292.09
2019-02-20T21:48:06.553Z,102293.16
2019-02-20T21:50:38.131Z,102299.11
2019-02-20T21:53:14.967Z,102298.30
2019-02-20T21:55:55.602Z,102301.27
2019-02-20T21:58:38.967Z,102304.55
2019-02-20T22:01:42.090Z,102301.34
2019-02-20T22:04:29.933Z,102307.87
2019-02-20T22:07:17.314Z,102301.10
2019-02-20T22:10:23.882Z,102305.19
2019-02-20T22:13:17.904Z,102312.74
2019-02-20T22:15:55.532Z,102307.84
2019-02-20T22:18:49.899Z,102307.55
2019-02-20T22:21:38.002Z,102303.50
2019-02-20T22:24:15.952Z,102308.58
2019-02-20T22:26:56.523Z,102301.00
2019-02-20T22:29:28.093Z,102311.32
2019-02-20T22:32:00.655Z,102308.07
2019-02-20T22:34:44.217Z,102312.40
2019-02-20T22:37:15.776Z,102310.23
2019-02-20T22:39:53.101Z,102309.16
2019-02-20T22:42:30.277Z,102311.32
2019-02-20T22:45:10.558Z,102316.16
2019-02-20T22:48:01.728Z,102316.98
2019-02-20T22:50:39.108Z,102319.11
2019-02-20T22:53:22.592Z,102323.17
2019-02-20T22:56:03.140Z,102319.11
2019-02-20T22:58:52.217Z,102319.92
2019-02-20T23:01:38.096Z,102317.25
2019-02-20T23:04:15.186Z,102321.81
2019-02-20T23:07:02.008Z,102313.97
2019-02-20T23:09:45.482Z,102315.11
2019-02-20T23:12:35.060Z,102311.05
2019-02-20T23:15:05.113Z,102311.56
2019-02-20T23:17:33.649Z,102318.30
2019-02-20T23:20:02.467Z,102321.55
2019-02-20T23:22:31.097Z,102324.55
2019-02-20T23:24:59.852Z,102323.71
2019-02-20T23:27:28.961Z,102329.13
2019-02-20T23:29:57.503Z,102318.50
2019-02-20T23:32:26.141Z,102327.16
2019-02-20T23:34:54.708Z,102334.20
2019-02-20T23:37:23.301Z,102335.82
2019-02-20T23:39:51.902Z,102334.16
2019-02-20T23:42:20.590Z,102345.48
2019-02-20T23:44:49.217Z,102339.25
2019-02-20T23:47:17.836Z,102337.63
2019-02-20T23:49:46.357Z,102338.71
2019-02-20T23:52:15.072Z,102341.69
2019-02-20T23:54:43.646Z,102343.55
2019-02-20T23:57:12.211Z,102348.14
2019-02-20T23:59:40.666Z,102345.39
